Time;durP1;ratioP1;P1;durP2;ratioP2;P2;SDS_P1;SDS_P2;PMS_P1;PMS_P2;Temp;Humidity;BMP_temperature;BMP_pressure;BME280_temperature;BME280_humidity;BME280_pressure;Samples;Min_cycle;Max_cycle;Signal;HPM_P1;HPM_P2
2022/11/21 00:00:52;;;;;;;45.75;17.10;;;;;;;0.09;87.65;97786.86;1677972;85;25444;-74
2022/11/21 00:03:19;;;;;;;37.50;15.70;;;;;;;0.09;87.55;97788.21;1678176;85;25435;-73
2022/11/21 00:05:47;;;;;;;43.92;17.17;;;;;;;0.06;87.43;97786.84;1677729;85;25776;-75
2022/11/21 00:08:17;;;;;;;42.40;17.42;;;;;;;0.04;87.42;97782.80;1678104;85;25487;-74
2022/11/21 00:10:45;;;;;;;65.05;22.45;;;;;;;0.04;87.29;97780.92;1678022;85;27537;-73
2022/11/21 00:13:16;;;;;;;41.05;16.75;;;;;;;0.02;87.30;97776.86;1677710;85;27348;-75
2022/11/21 00:15:44;;;;;;;40.60;16.62;;;;;;;0.01;87.37;97771.20;1677426;85;25697;-74
2022/11/21 00:18:11;;;;;;;38.83;15.72;;;;;;;-0.01;87.35;97770.95;1678154;85;25558;-75
2022/11/21 00:20:39;;;;;;;40.63;16.85;;;;;;;-0.02;87.38;97766.64;1677737;85;25684;-74
2022/11/21 00:23:05;;;;;;;51.08;18.85;;;;;;;-0.03;87.29;97767.70;1678011;85;27594;-74
2022/11/21 00:25:32;;;;;;;46.53;18.02;;;;;;;-0.07;87.24;97774.70;1677615;85;25484;-74
2022/11/21 00:27:59;;;;;;;40.90;16.82;;;;;;;-0.09;87.40;97780.88;1677826;85;25661;-73
2022/11/21 00:30:25;;;;;;;50.95;17.67;;;;;;;-0.13;87.66;97775.75;1677735;85;25829;-75
2022/11/21 00:32:51;;;;;;;47.13;19.15;;;;;;;-0.15;87.49;97780.59;1677815;85;25495;-75
2022/11/21 00:35:18;;;;;;;37.88;14.75;;;;;;;-0.17;87.41;97776.02;1677703;85;27402;-75
2022/11/21 00:37:47;;;;;;;38.33;15.18;;;;;;;-0.19;87.74;97774.13;1677682;85;25660;-74
2022/11/21 00:40:13;;;;;;;36.03;14.60;;;;;;;-0.20;87.68;97773.30;1677765;84;25489;-76
2022/11/21 00:42:39;;;;;;;35.38;15.63;;;;;;;-0.19;87.81;97768.73;1677744;85;25743;-75
2022/11/21 00:45:08;;;;;;;35.45;15.05;;;;;;;-0.20;87.65;97763.88;1677908;85;25430;-75
2022/11/21 00:47:34;;;;;;;35.43;14.95;;;;;;;-0.19;87.51;97762.00;1677939;85;27341;-75
2022/11/21 00:50:01;;;;;;;41.05;16.30;;;;;;;-0.19;87.44;97762.82;1677600;85;25693;-75
2022/11/21 00:52:27;;;;;;;39.08;16.80;;;;;;;-0.20;87.50;97765.22;1677760;85;25688;-72
2022/11/21 00:54:53;;;;;;;46.25;19.05;;;;;;;-0.23;87.41;97759.58;1678172;85;26348;-75
2022/11/21 00:57:20;;;;;;;32.28;13.72;;;;;;;-0.26;87.34;97766.28;1677772;85;25672;-75
2022/11/21 00:59:46;;;;;;;42.00;17.37;;;;;;;-0.28;87.48;97753.64;1678210;85;27531;-75
2022/11/21 01:02:12;;;;;;;38.63;17.52;;;;;;;-0.31;87.38;97754.98;1677599;85;25646;-75
2022/11/21 01:04:39;;;;;;;39.83;19.15;;;;;;;-0.35;87.57;97747.14;1677889;85;25692;-72
2022/11/21 01:07:05;;;;;;;40.10;16.57;;;;;;;-0.34;87.40;97747.96;1677869;85;25780;-75
2022/11/21 01:09:32;;;;;;;41.90;17.10;;;;;;;-0.34;87.54;97747.44;1677781;85;25707;-74
2022/11/21 01:11:59;;;;;;;41.23;16.77;;;;;;;-0.34;87.37;97737.19;1677754;85;27558;-75
2022/11/21 01:14:25;;;;;;;35.98;14.63;;;;;;;-0.34;87.24;97725.90;1677789;85;25514;-75
2022/11/21 01:16:52;;;;;;;36.40;14.28;;;;;;;-0.34;87.42;97719.69;1677992;85;25788;-74
2022/11/21 01:19:18;;;;;;;35.15;14.00;;;;;;;-0.32;87.40;97722.94;1677966;85;25763;-74
2022/11/21 01:21:44;;;;;;;39.83;15.35;;;;;;;-0.33;87.38;97722.65;1677767;85;25661;-75
2022/11/21 01:24:12;;;;;;;38.70;16.42;;;;;;;-0.34;87.30;97727.24;1677729;85;27478;-74
2022/11/21 01:26:39;;;;;;;29.72;11.38;;;;;;;-0.35;87.26;97726.16;1677630;85;25408;-75
2022/11/21 01:29:07;;;;;;;37.50;15.90;;;;;;;-0.37;87.48;97715.66;1678109;85;25693;-75
2022/11/21 01:31:35;;;;;;;32.80;14.80;;;;;;;-0.38;87.22;97712.67;1677782;85;25674;-75
2022/11/21 01:34:02;;;;;;;44.13;17.40;;;;;;;-0.36;87.16;97716.45;1678153;85;25657;-75
2022/11/21 01:36:32;;;;;;;34.63;14.23;;;;;;;-0.37;86.95;97711.62;1677764;85;28061;-76
2022/11/21 01:39:02;;;;;;;38.92;16.25;;;;;;;-0.37;87.12;97700.85;1677940;85;25614;-74
2022/11/21 01:41:36;;;;;;;45.38;17.10;;;;;;;-0.32;86.97;97705.44;1678148;85;25632;-75
2022/11/21 01:44:23;;;;;;;46.55;18.05;;;;;;;-0.33;86.86;97696.55;1677919;85;25755;-72
2022/11/21 01:46:51;;;;;;;42.05;15.85;;;;;;;-0.34;86.65;97701.67;1678036;85;25693;-75
2022/11/21 01:49:23;;;;;;;38.15;15.08;;;;;;;-0.40;86.54;97702.73;1678037;85;28203;-74
2022/11/21 01:52:07;;;;;;;44.80;18.40;;;;;;;-0.43;86.49;97709.42;1678082;85;25676;-74
2022/11/21 01:54:47;;;;;;;37.25;15.60;;;;;;;-0.50;86.42;97699.45;1677948;85;25447;-74
2022/11/21 01:57:34;;;;;;;31.57;14.53;;;;;;;-0.51;86.49;97700.54;1678446;85;26427;-75
2022/11/21 02:00:12;;;;;;;27.82;12.20;;;;;;;-0.56;86.51;97694.60;1677624;85;25403;-69
2022/11/21 02:02:50;;;;;;;30.75;13.72;;;;;;;-0.58;86.51;97699.43;1675558;84;27516;-75
2022/11/21 02:05:21;;;;;;;37.75;15.93;;;;;;;-0.62;86.46;97690.80;1678007;85;25763;-75
2022/11/21 02:07:51;;;;;;;42.38;17.48;;;;;;;-0.62;86.49;97694.84;1676188;85;25623;-74
2022/11/21 02:10:18;;;;;;;32.38;16.80;;;;;;;-0.61;86.57;97697.82;1677658;85;25676;-70
2022/11/21 02:12:51;;;;;;;36.88;20.68;;;;;;;-0.63;86.58;97688.66;1677682;84;25689;-74
2022/11/21 02:15:22;;;;;;;42.55;23.12;;;;;;;-0.62;86.79;97690.27;1678076;85;28094;-74
2022/11/21 02:17:48;;;;;;;31.23;15.10;;;;;;;-0.59;86.77;97697.00;1677391;85;25448;-75
2022/11/21 02:20:19;;;;;;;33.35;16.15;;;;;;;-0.58;86.77;97693.26;1677651;85;25608;-73
2022/11/21 02:23:22;;;;;;;30.30;13.32;;;;;;;-0.56;86.70;97683.02;1678126;85;25746;-73
2022/11/21 02:25:49;;;;;;;67.82;22.93;;;;;;;-0.55;86.94;97685.44;1681782;85;25652;-69
2022/11/21 02:28:22;;;;;;;53.78;20.30;;;;;;;-0.56;86.80;97694.60;1687508;85;28292;-69
2022/11/21 02:30:53;;;;;;;44.20;17.20;;;;;;;-0.58;86.63;97698.64;1687659;84;25494;-72
2022/11/21 02:33:26;;;;;;;29.02;13.60;;;;;;;-0.58;86.65;97690.56;1687579;84;25431;-71
2022/11/21 02:35:59;;;;;;;35.25;15.18;;;;;;;-0.59;86.81;97679.51;1687929;84;25689;-73
2022/11/21 02:38:37;;;;;;;57.10;20.50;;;;;;;-0.59;86.84;97679.51;1687850;84;25669;-73
2022/11/21 02:41:25;;;;;;;62.62;21.05;;;;;;;-0.61;86.66;97673.60;1687641;85;28247;-72
2022/11/21 02:43:54;;;;;;;63.35;21.50;;;;;;;-0.61;86.71;97678.43;1687619;83;25604;-74
2022/11/21 02:46:20;;;;;;;49.40;20.23;;;;;;;-0.66;86.33;97677.08;1686848;84;25680;-72
2022/11/21 02:48:47;;;;;;;40.80;16.37;;;;;;;-0.73;86.16;97680.01;1687489;84;25787;-73
2022/11/21 02:51:14;;;;;;;39.83;17.40;;;;;;;-0.77;86.13;97679.72;1687586;84;25735;-73
2022/11/21 02:53:40;;;;;;;38.42;16.15;;;;;;;-0.80;86.20;97671.38;1687578;84;26610;-70
2022/11/21 02:56:06;;;;;;;55.63;20.82;;;;;;;-0.82;86.42;97666.27;1687391;84;25617;-71
2022/11/21 02:58:33;;;;;;;36.73;16.70;;;;;;;-0.82;86.61;97668.13;1687523;85;25451;-74
2022/11/21 03:00:59;;;;;;;30.88;12.90;;;;;;;-0.82;86.64;97670.83;1687476;84;25731;-74
2022/11/21 03:03:25;;;;;;;32.88;14.47;;;;;;;-0.82;86.99;97671.64;1687606;85;25439;-74
2022/11/21 03:05:52;;;;;;;28.38;12.90;;;;;;;-0.83;87.10;97665.18;1687579;85;27548;-74
2022/11/21 03:08:18;;;;;;;36.08;15.40;;;;;;;-0.81;87.44;97667.08;1687434;84;25687;-74
2022/11/21 03:10:45;;;;;;;30.85;13.78;;;;;;;-0.81;87.74;97666.53;1687772;84;25652;-75
2022/11/21 03:13:11;;;;;;;37.88;16.52;;;;;;;-0.78;88.08;97663.83;1687508;84;25811;-74
2022/11/21 03:15:37;;;;;;;35.20;15.53;;;;;;;-0.75;88.14;97664.66;1687548;85;25756;-73
2022/11/21 03:18:04;;;;;;;34.15;14.25;;;;;;;-0.72;87.80;97663.34;1687537;85;29592;-74
2022/11/21 03:20:33;;;;;;;32.20;14.18;;;;;;;-0.68;87.83;97664.42;1687827;85;25645;-74
2022/11/21 03:23:00;;;;;;;31.70;14.23;;;;;;;-0.63;87.83;97663.10;1687980;84;25748;-75
2022/11/21 03:25:26;;;;;;;32.50;15.08;;;;;;;-0.58;88.02;97665.00;1686366;85;25713;-75
2022/11/21 03:27:54;;;;;;;28.38;11.97;;;;;;;-0.53;88.07;97673.89;1677887;85;25602;-72
2022/11/21 03:30:22;;;;;;;33.23;16.73;;;;;;;-0.52;88.65;97664.73;1678274;85;27451;-74
2022/11/21 03:32:48;;;;;;;25.35;12.07;;;;;;;-0.53;88.62;97667.69;1678085;85;25692;-74
2022/11/21 03:35:15;;;;;;;33.73;14.33;;;;;;;-0.55;88.85;97659.88;1677820;85;25553;-73
2022/11/21 03:37:41;;;;;;;27.48;12.88;;;;;;;-0.54;88.63;97655.31;1677701;85;25772;-74
2022/11/21 03:40:10;;;;;;;27.73;10.80;;;;;;;-0.54;88.88;97652.63;1678147;85;25657;-74
2022/11/21 03:42:36;;;;;;;31.45;15.03;;;;;;;-0.54;89.03;97650.75;1678285;85;27391;-73
2022/11/21 03:45:04;;;;;;;30.70;13.03;;;;;;;-0.52;88.71;97645.07;1677841;85;25695;-74
2022/11/21 03:47:30;;;;;;;30.05;12.13;;;;;;;-0.51;88.90;97638.08;1678095;85;25712;-72
2022/11/21 03:49:57;;;;;;;21.17;10.20;;;;;;;-0.49;89.10;97629.73;1678141;85;25816;-74
2022/11/21 03:52:23;;;;;;;20.50;9.50;;;;;;;-0.49;88.93;97628.39;1677912;85;25434;-74
2022/11/21 03:54:50;;;;;;;30.68;14.28;;;;;;;-0.47;89.11;97617.36;1677790;85;27415;-73
2022/11/21 03:57:16;;;;;;;31.82;15.95;;;;;;;-0.47;88.87;97609.28;1677712;85;25483;-74
2022/11/21 03:59:43;;;;;;;34.33;14.60;;;;;;;-0.46;88.56;97599.59;1677776;85;25482;-73
2022/11/21 04:02:09;;;;;;;36.40;16.75;;;;;;;-0.42;88.44;97603.92;1678061;85;25717;-74
2022/11/21 04:04:36;;;;;;;37.75;16.55;;;;;;;-0.37;88.30;97601.24;1678213;85;25589;-71
2022/11/21 04:07:02;;;;;;;36.77;15.83;;;;;;;-0.32;88.22;97606.61;1678206;85;27532;-72
2022/11/21 04:09:28;;;;;;;33.15;14.65;;;;;;;-0.29;88.03;97603.95;1677717;85;25703;-71
2022/11/21 04:11:55;;;;;;;34.67;15.45;;;;;;;-0.33;87.39;97610.92;1677787;85;25416;-72
2022/11/21 04:14:21;;;;;;;33.45;14.75;;;;;;;-0.37;87.69;97600.42;1677766;85;25725;-71
2022/11/21 04:16:47;;;;;;;33.85;14.28;;;;;;;-0.34;87.61;97605.27;1677954;85;25606;-73
2022/11/21 04:19:14;;;;;;;41.05;17.57;;;;;;;-0.39;87.25;97605.55;1677904;85;27298;-75
2022/11/21 04:21:41;;;;;;;36.45;17.23;;;;;;;-0.36;87.60;97595.30;1677650;85;25662;-74
2022/11/21 04:24:08;;;;;;;35.98;16.85;;;;;;;-0.32;87.30;97585.64;1677769;85;25707;-73
2022/11/21 04:26:34;;;;;;;33.00;16.07;;;;;;;-0.40;86.88;97576.99;1677889;84;25759;-74
2022/11/21 04:29:01;;;;;;;32.00;14.87;;;;;;;-0.44;86.61;97574.58;1677783;85;25435;-74
2022/11/21 04:31:27;;;;;;;35.05;16.05;;;;;;;-0.49;86.53;97573.22;1677775;85;27484;-68
2022/11/21 04:33:53;;;;;;;33.60;15.88;;;;;;;-0.53;86.49;97569.45;1677872;85;25430;-74
2022/11/21 04:36:20;;;;;;;35.75;16.23;;;;;;;-0.60;85.92;97563.00;1677995;85;26008;-73
2022/11/21 04:38:46;;;;;;;31.52;15.53;;;;;;;-0.72;85.89;97560.55;1677709;85;25829;-74
2022/11/21 04:41:12;;;;;;;38.63;17.23;;;;;;;-0.83;86.06;97561.61;1677741;85;25737;-75
2022/11/21 04:43:39;;;;;;;37.30;17.77;;;;;;;-0.91;86.44;97551.66;1678104;85;27372;-74
2022/11/21 04:46:05;;;;;;;36.35;16.65;;;;;;;-0.90;86.72;97556.48;1677671;85;25629;-73
2022/11/21 04:48:31;;;;;;;36.95;17.07;;;;;;;-0.89;86.68;97555.42;1677685;85;25636;-74
2022/11/21 04:50:58;;;;;;;50.33;22.15;;;;;;;-0.89;86.83;97555.42;1678128;85;26520;-72
2022/11/21 04:53:24;;;;;;;47.03;22.15;;;;;;;-0.89;86.69;97558.91;1678164;85;25688;-72
2022/11/21 04:55:51;;;;;;;46.68;21.52;;;;;;;-0.87;86.80;97550.56;1677750;85;27523;-71
2022/11/21 04:58:17;;;;;;;44.20;20.65;;;;;;;-0.88;86.82;97542.23;1677633;85;25569;-73
2022/11/21 05:00:43;;;;;;;37.88;18.17;;;;;;;-0.93;86.72;97533.62;1678060;85;25668;-73
2022/11/21 05:03:10;;;;;;;39.83;19.23;;;;;;;-0.94;86.73;97525.28;1677658;85;25753;-74
2022/11/21 05:05:36;;;;;;;44.60;19.05;;;;;;;-1.01;87.05;97529.56;1678139;85;25641;-74
2022/11/21 05:08:03;;;;;;;44.38;18.10;;;;;;;-1.03;87.83;97524.19;1677977;85;27484;-73
2022/11/21 05:10:30;;;;;;;38.35;16.32;;;;;;;-1.02;88.33;97523.11;1678110;85;25499;-73
2022/11/21 05:15:44;;;;;;;40.88;14.80;;;;;;;-0.98;89.18;97522.84;1677878;85;25635;-73
2022/11/21 05:18:11;;;;;;;36.77;15.25;;;;;;;-0.96;89.41;97521.23;1677889;85;25688;-73
2022/11/21 05:20:37;;;;;;;37.83;16.77;;;;;;;-0.94;89.53;97520.44;1677704;85;27525;-72
2022/11/21 05:23:04;;;;;;;45.90;18.55;;;;;;;-0.92;89.37;97519.64;1677767;85;25735;-73
2022/11/21 05:25:30;;;;;;;34.33;16.87;;;;;;;-0.89;89.53;97520.45;1677708;85;25620;-73
2022/11/21 05:27:57;;;;;;;38.95;18.07;;;;;;;-0.92;89.21;97521.77;1677832;85;25732;-74
2022/11/21 05:30:23;;;;;;;34.48;15.68;;;;;;;-0.94;89.05;97527.16;1677692;85;25498;-74
2022/11/21 05:32:50;;;;;;;39.13;16.42;;;;;;;-0.98;88.97;97522.05;1677740;85;27465;-74
2022/11/21 05:35:16;;;;;;;35.78;15.90;;;;;;;-1.04;89.24;97517.99;1677754;85;25677;-73
2022/11/21 05:37:42;;;;;;;36.00;14.83;;;;;;;-1.05;89.48;97519.60;1677731;85;25507;-72
2022/11/21 05:40:10;;;;;;;43.17;18.25;;;;;;;-1.06;90.03;97521.47;1677652;85;25738;-73
2022/11/21 05:45:25;;;;;;;34.18;16.00;;;;;;;-1.04;89.73;97518.52;1677881;85;25623;-72
2022/11/21 05:47:52;;;;;;;38.67;15.55;;;;;;;-1.02;89.96;97523.11;1677631;85;25412;-74
2022/11/21 05:50:18;;;;;;;42.88;16.67;;;;;;;-1.01;90.25;97522.02;1677664;85;25707;-73
2022/11/21 05:52:44;;;;;;;45.17;18.62;;;;;;;-1.01;90.34;97520.16;1677671;85;25764;-74
2022/11/21 05:55:11;;;;;;;44.35;19.50;;;;;;;-1.03;90.36;97519.59;1677731;85;25684;-74
2022/11/21 05:57:37;;;;;;;52.90;20.52;;;;;;;-1.05;90.39;97523.11;1677747;85;27557;-72
2022/11/21 06:00:05;;;;;;;48.73;19.27;;;;;;;-1.05;90.22;97526.33;1677692;85;25679;-71
2022/11/21 06:05:16;;;;;;;41.35;18.55;;;;;;;-1.04;90.10;97535.47;1677685;85;25902;-74
2022/11/21 06:07:42;;;;;;;47.45;19.23;;;;;;;-1.00;90.04;97529.04;1677746;85;25692;-73
2022/11/21 06:10:09;;;;;;;46.75;20.57;;;;;;;-0.98;89.93;97529.56;1677849;85;27486;-73
2022/11/21 06:12:35;;;;;;;47.45;19.95;;;;;;;-0.96;90.04;97522.05;1677948;85;25708;-71
2022/11/21 06:15:03;;;;;;;39.38;17.75;;;;;;;-0.94;89.85;97525.81;1678308;85;26076;-72
2022/11/21 06:17:29;;;;;;;43.75;19.77;;;;;;;-0.96;89.86;97522.05;1677599;85;25728;-72
2022/11/21 06:19:55;;;;;;;39.15;17.48;;;;;;;-0.99;89.80;97518.55;1677685;85;25720;-73
2022/11/21 06:22:22;;;;;;;46.48;19.12;;;;;;;-1.03;89.76;97516.13;1677631;85;27413;-71
2022/11/21 06:24:48;;;;;;;42.38;17.70;;;;;;;-1.07;89.95;97509.11;1677597;85;25752;-71
2022/11/21 06:27:15;;;;;;;38.73;17.65;;;;;;;-1.07;90.21;97509.67;1677516;84;25548;-73
2022/11/21 06:29:42;;;;;;;48.98;18.37;;;;;;;-1.12;90.50;97510.46;1677578;85;25660;-73
2022/11/21 06:32:09;;;;;;;42.67;18.00;;;;;;;-1.11;90.48;97506.69;1677688;85;25486;-73
2022/11/21 06:34:36;;;;;;;42.27;18.07;;;;;;;-1.10;90.70;97495.41;1677884;85;27419;-71
2022/11/21 06:37:03;;;;;;;40.52;17.45;;;;;;;-1.08;91.15;97504.81;1677807;85;25699;-71
2022/11/21 06:39:29;;;;;;;33.28;14.05;;;;;;;-1.04;91.02;97502.39;1677574;85;25739;-72
2022/11/21 06:41:56;;;;;;;43.38;19.00;;;;;;;-1.02;90.91;97501.06;1677611;85;25795;-73
2022/11/21 06:44:22;;;;;;;43.15;20.17;;;;;;;-1.08;90.73;97498.63;1677694;85;25514;-73
2022/11/21 06:46:49;;;;;;;43.25;18.70;;;;;;;-1.11;90.73;97501.31;1678008;85;27903;-69
2022/11/21 06:49:16;;;;;;;47.30;21.05;;;;;;;-1.11;90.58;97501.31;1677800;85;25771;-72
2022/11/21 06:51:42;;;;;;;37.10;17.67;;;;;;;-1.14;90.48;97495.13;1677793;85;25443;-73
2022/11/21 06:54:09;;;;;;;53.58;23.65;;;;;;;-1.12;90.62;97503.74;1677671;85;25822;-71
2022/11/21 06:56:36;;;;;;;36.73;16.42;;;;;;;-1.09;90.51;97499.18;1677846;85;25748;-72
2022/11/21 06:59:02;;;;;;;55.85;24.37;;;;;;;-1.05;90.72;97498.91;1677767;85;27501;-72
2022/11/21 07:01:29;;;;;;;52.65;22.70;;;;;;;-0.99;90.62;97498.38;1677693;85;25756;-73
2022/11/21 07:03:55;;;;;;;58.83;23.85;;;;;;;-0.93;90.59;97498.66;1677817;85;25644;-72
2022/11/21 07:06:23;;;;;;;59.18;25.50;;;;;;;-0.85;90.43;97504.57;1677795;85;25787;-73
2022/11/21 07:08:53;;;;;;;55.10;25.08;;;;;;;-0.78;90.26;97503.23;1677960;85;25761;-73
2022/11/21 07:11:20;;;;;;;65.67;27.20;;;;;;;-0.72;90.12;97496.53;1678244;85;27561;-72
2022/11/21 07:13:47;;;;;;;64.03;26.40;;;;;;;-0.68;89.95;97497.07;1678111;85;25499;-73
2022/11/21 07:16:13;;;;;;;55.52;25.00;;;;;;;-0.60;89.88;97500.30;1677797;85;25467;-74
2022/11/21 07:18:41;;;;;;;55.83;24.75;;;;;;;-0.53;89.73;97498.13;1677739;85;25787;-73
2022/11/21 07:21:08;;;;;;;59.33;25.95;;;;;;;-0.53;89.44;97495.44;1677812;85;25629;-73
2022/11/21 07:23:35;;;;;;;58.85;27.95;;;;;;;-0.45;89.69;97500.83;1678204;85;28338;-72
2022/11/21 07:26:05;;;;;;;55.48;24.98;;;;;;;-0.37;89.72;97501.64;1677998;85;25648;-72
2022/11/21 07:28:33;;;;;;;54.10;24.47;;;;;;;-0.29;89.68;97497.03;1685824;85;25675;-73
2022/11/21 07:31:02;;;;;;;62.17;24.57;;;;;;;-0.18;89.64;97501.05;1688050;85;25609;-70
2022/11/21 07:33:29;;;;;;;53.83;24.65;;;;;;;-0.10;89.50;97497.01;1687691;85;25655;-70
2022/11/21 07:35:57;;;;;;;48.92;22.77;;;;;;;-0.01;89.39;97496.72;1687967;84;27541;-70
2022/11/21 07:38:25;;;;;;;42.10;19.57;;;;;;;0.02;89.31;97497.52;1687650;83;25600;-70
2022/11/21 07:40:52;;;;;;;54.33;23.67;;;;;;;0.07;89.25;97494.02;1687269;85;25680;-70
2022/11/21 07:43:18;;;;;;;47.15;21.02;;;;;;;0.16;89.41;97493.72;1687805;84;25881;-69
2022/11/21 07:45:45;;;;;;;50.00;24.05;;;;;;;0.25;89.32;97491.27;1687671;85;25699;-70
2022/11/21 07:48:11;;;;;;;39.88;19.73;;;;;;;0.34;89.25;97492.31;1687632;85;27461;-70
2022/11/21 07:50:38;;;;;;;40.65;18.42;;;;;;;0.40;89.11;97489.05;1687712;85;25716;-70
2022/11/21 07:53:10;;;;;;;47.05;23.92;;;;;;;0.47;89.16;97487.41;1688240;84;25604;-70
2022/11/21 07:55:36;;;;;;;34.25;15.65;;;;;;;0.55;89.22;97491.42;1687981;85;25876;-70
2022/11/21 07:58:12;;;;;;;47.83;22.27;;;;;;;0.57;89.26;97487.36;1687799;85;25474;-70
2022/11/21 08:00:43;;;;;;;34.00;16.48;;;;;;;0.62;89.29;97482.48;1688024;85;27298;-69
2022/11/21 08:03:11;;;;;;;37.67;18.02;;;;;;;0.67;89.29;97488.40;1687661;84;25871;-68
2022/11/21 08:05:46;;;;;;;40.00;19.12;;;;;;;0.72;89.32;97486.47;1687496;85;25683;-68
2022/11/21 08:08:24;;;;;;;46.15;22.02;;;;;;;0.75;89.34;97475.13;1687977;84;25786;-68
2022/11/21 08:10:51;;;;;;;47.93;20.97;;;;;;;0.83;89.36;97472.92;1687938;85;25506;-67
2022/11/21 08:13:17;;;;;;;38.48;19.15;;;;;;;0.91;89.35;97471.53;1687602;84;27510;-68
2022/11/21 08:15:44;;;;;;;36.60;18.30;;;;;;;0.95;89.07;97472.61;1687511;85;25680;-68
2022/11/21 08:18:20;;;;;;;35.88;16.55;;;;;;;0.97;89.12;97468.53;1687524;85;25680;-68
2022/11/21 08:20:44;;;;;;;38.50;19.85;;;;;;;1.02;88.88;97474.44;1687040;84;25414;-68
2022/11/21 08:23:11;;;;;;;35.00;17.10;;;;;;;1.07;88.86;97466.86;1687724;84;25664;-68
2022/11/21 08:25:39;;;;;;;24.63;12.33;;;;;;;1.12;88.70;97470.31;1682032;84;27521;-69
2022/11/21 08:28:07;;;;;;;43.98;19.65;;;;;;;1.16;88.65;97474.62;1686079;83;25680;-68
2022/11/21 08:30:34;;;;;;;30.97;14.80;;;;;;;1.21;88.55;97469.73;1687857;84;25692;-69
2022/11/21 08:33:02;;;;;;;36.53;17.30;;;;;;;1.29;88.75;97472.38;1687628;84;26110;-69
2022/11/21 08:35:29;;;;;;;34.60;17.42;;;;;;;1.35;88.45;97480.13;1688204;85;25636;-69
2022/11/21 08:37:58;;;;;;;23.10;11.90;;;;;;;1.48;88.37;97475.99;1687964;84;27436;-69
2022/11/21 08:40:27;;;;;;;40.52;18.20;;;;;;;1.55;88.00;97474.86;1687482;84;25486;-69
2022/11/21 08:43:00;;;;;;;38.92;18.62;;;;;;;1.68;88.29;97477.43;1687980;85;25760;-69
2022/11/21 08:45:26;;;;;;;30.70;15.05;;;;;;;1.87;88.34;97467.52;1687578;84;25685;-68
2022/11/21 08:48:13;;;;;;;46.88;22.10;;;;;;;2.08;87.49;97467.85;1687846;85;25612;-70
2022/11/21 08:50:50;;;;;;;46.75;22.75;;;;;;;2.36;88.05;97478.90;1687625;83;25827;-71
2022/11/21 08:53:23;;;;;;;37.50;16.97;;;;;;;2.64;87.81;97470.96;1687714;84;25580;-71
2022/11/21 08:55:50;;;;;;;41.10;19.95;;;;;;;2.86;86.05;97477.17;1687632;85;25531;-71
2022/11/21 08:58:16;;;;;;;45.75;22.77;;;;;;;3.00;86.21;97474.52;1687552;84;25730;-70
2022/11/21 09:00:43;;;;;;;43.90;20.08;;;;;;;3.10;85.88;97469.52;1687569;84;25684;-73
2022/11/21 09:03:09;;;;;;;42.75;20.82;;;;;;;3.21;85.72;97470.17;1687641;84;27593;-71
2022/11/21 09:05:35;;;;;;;54.48;28.02;;;;;;;3.32;85.89;97465.41;1687951;84;25695;-72
2022/11/21 09:08:02;;;;;;;57.13;27.10;;;;;;;3.46;86.04;97465.99;1687600;85;25754;-72
2022/11/21 09:10:29;;;;;;;68.17;33.95;;;;;;;3.58;85.92;97460.10;1687535;85;25774;-72
2022/11/21 09:12:59;;;;;;;82.65;31.93;;;;;;;3.72;86.21;97458.24;1687630;85;25693;-74
2022/11/21 09:18:11;;;;;;;49.65;22.45;;;;;;;3.88;85.56;97451.98;1687461;85;25664;-74
2022/11/21 09:20:40;;;;;;;108.17;42.35;;;;;;;3.96;86.15;97455.09;1687955;85;25712;-75
2022/11/21 09:23:13;;;;;;;61.53;22.80;;;;;;;4.04;85.56;97457.66;1687910;84;25782;-76
2022/11/21 09:25:40;;;;;;;92.62;33.80;;;;;;;4.08;85.29;97448.63;1687865;84;25434;-75
2022/11/21 09:28:09;;;;;;;105.20;37.45;;;;;;;4.19;85.69;97449.23;1680521;85;27307;-75
2022/11/21 09:30:36;;;;;;;137.55;47.60;;;;;;;4.31;85.11;97446.56;1678022;85;25638;-74
2022/11/21 09:33:13;;;;;;;99.58;36.65;;;;;;;4.46;84.98;97449.53;1677918;85;25441;-72
2022/11/21 09:35:39;;;;;;;86.45;32.95;;;;;;;4.60;84.95;97437.28;1677812;85;25895;-74
2022/11/21 09:38:05;;;;;;;48.48;17.12;;;;;;;4.76;84.25;97439.13;1678113;85;25465;-75
2022/11/21 09:40:33;;;;;;;45.35;19.95;;;;;;;4.86;82.75;97439.44;1677845;85;29577;-73
2022/11/21 09:43:34;;;;;;;26.60;12.45;;;;;;;5.04;82.97;97428.19;1677903;84;26939;-75
2022/11/21 09:46:12;;;;;;;90.80;40.28;;;;;;;5.24;81.98;97435.59;1677942;83;25442;-73
2022/11/21 09:48:46;;;;;;;30.95;12.78;;;;;;;5.57;82.04;97429.08;1677658;85;25738;-73
2022/11/21 09:51:16;;;;;;;26.45;12.00;;;;;;;5.92;80.69;97427.09;1676513;85;25651;-75
2022/11/21 09:54:18;;;;;;;35.88;15.10;;;;;;;6.25;80.20;97429.50;1678135;85;27338;-75
2022/11/21 09:56:46;;;;;;;29.25;13.00;;;;;;;6.48;79.09;97427.45;1677742;85;25605;-75
2022/11/21 09:59:30;;;;;;;23.62;12.10;;;;;;;6.81;78.84;97426.23;1677948;85;25609;-74
2022/11/21 10:01:57;;;;;;;18.42;8.60;;;;;;;6.94;76.83;97425.83;1677651;85;25759;-76
2022/11/21 10:04:24;;;;;;;28.62;11.88;;;;;;;6.83;75.69;97421.83;1679633;83;25498;-75
2022/11/21 10:07:20;;;;;;;21.10;9.28;;;;;;;6.76;76.54;97423.11;1677767;85;28061;-75
2022/11/21 10:10:04;;;;;;;20.05;10.13;;;;;;;6.67;76.39;97417.42;1678066;85;25638;-75
2022/11/21 10:12:54;;;;;;;29.65;12.43;;;;;;;6.60;76.88;97420.06;1677662;85;25487;-75
2022/11/21 10:15:53;;;;;;;17.50;8.80;;;;;;;6.60;77.47;97417.88;1678013;85;25687;-76
2022/11/21 10:18:37;;;;;;;19.02;9.68;;;;;;;6.57;76.88;97420.69;1678043;85;25740;-75
2022/11/21 10:21:44;;;;;;;22.22;10.08;;;;;;;6.45;76.69;97416.42;1677512;85;28386;-74
2022/11/21 10:24:27;;;;;;;16.02;8.55;;;;;;;6.44;76.79;97412.08;1677686;85;25636;-74
2022/11/21 10:27:08;;;;;;;33.55;14.30;;;;;;;6.57;77.03;97408.98;1678069;85;25468;-76
2022/11/21 10:29:52;;;;;;;26.60;14.68;;;;;;;6.84;76.81;97417.42;1673968;85;25711;-78
2022/11/21 10:32:32;;;;;;;21.60;11.18;;;;;;;6.96;75.52;97411.34;1676388;85;25704;-77
2022/11/21 10:35:21;;;;;;;28.40;12.05;;;;;;;6.93;75.16;97421.51;1677916;85;27396;-80
2022/11/21 10:37:55;;;;;;;22.00;10.40;;;;;;;6.87;75.35;97422.23;1677930;85;26262;-73
2022/11/21 10:41:00;;;;;;;26.40;10.32;;;;;;;6.79;76.23;97421.66;1677508;85;25778;-79
2022/11/21 10:46:22;;;;;;;17.40;8.28;;;;;;;6.64;76.53;97414.76;1677835;85;25646;-80
2022/11/21 10:48:59;;;;;;;16.02;8.23;;;;;;;6.49;75.58;97420.10;1678025;85;27488;-77
2022/11/21 10:52:14;;;;;;;16.48;7.40;;;;;;;6.43;75.79;97415.38;1677967;85;25685;-79
2022/11/21 10:55:04;;;;;;;15.45;7.35;;;;;;;6.41;75.74;97412.16;1677947;85;25813;-79
2022/11/21 10:57:44;;;;;;;10.58;5.55;;;;;;;6.37;75.56;97414.73;1653813;85;25850;-78
2022/11/21 11:00:16;;;;;;;26.20;11.57;;;;;;;6.33;75.35;97414.31;1653346;86;25703;-76
2022/11/21 11:03:03;;;;;;;26.75;10.70;;;;;;;6.33;76.21;97404.22;1653953;86;28271;-78
2022/11/21 11:05:33;;;;;;;11.25;5.87;;;;;;;6.32;76.30;97402.63;1653334;86;25929;-76
2022/11/21 11:08:10;;;;;;;12.47;6.03;;;;;;;6.25;75.70;97398.21;1650662;86;25927;-76
2022/11/21 11:10:45;;;;;;;11.65;6.55;;;;;;;6.21;76.12;97404.02;1653672;86;25802;-74
2022/11/21 11:16:14;;;;;;;17.48;8.15;;;;;;;6.17;76.28;97409.31;1653801;86;25913;-76
2022/11/21 11:19:07;;;;;;;6.83;3.90;;;;;;;6.15;76.26;97409.63;1653719;86;25856;-78
2022/11/21 11:21:43;;;;;;;11.68;5.78;;;;;;;6.15;75.57;97405.55;1653775;86;25631;-74
2022/11/21 11:24:15;;;;;;;16.25;7.33;;;;;;;6.18;75.85;97406.02;1654066;86;25884;-76
2022/11/21 11:26:52;;;;;;;15.95;7.42;;;;;;;6.19;76.05;97409.78;1654155;86;25611;-75
2022/11/21 11:29:23;;;;;;;10.90;5.25;;;;;;;6.25;76.05;97396.85;1656520;86;27483;-75
2022/11/21 11:32:04;;;;;;;10.00;5.22;;;;;;;6.35;75.61;97398.46;1671532;85;35006;-77
2022/11/21 11:34:41;;;;;;;;;;;;;;;6.38;74.81;97391.84;1685199;85;25675;-77
2022/11/21 11:37:44;;;;;;;15.80;7.45;;;;;;;6.40;75.17;97403.19;1682832;85;25736;-76
2022/11/21 11:40:32;;;;;;;14.13;6.87;;;;;;;6.48;75.38;97400.23;1674601;85;25526;-76
2022/11/21 11:53:18;;;;;;;14.73;7.70;;;;;;;7.93;73.87;97391.81;1682751;85;25799;-77
2022/11/21 11:55:51;;;;;;;12.95;6.72;;;;;;;8.49;71.43;97389.53;1695940;84;25687;-77
2022/11/21 11:58:51;;;;;;;15.10;7.97;;;;;;;8.83;70.17;97386.33;1707075;83;28394;-78
2022/11/21 12:01:41;;;;;;;10.68;5.75;;;;;;;9.10;70.18;97393.73;1653357;83;25823;-76
2022/11/21 12:04:20;;;;;;;15.15;8.18;;;;;;;9.38;67.49;97393.16;1697287;84;25809;-77